Aérodrome :







RETROUVEZ-NOUS SUR...

 
LOGIN :

S'inscrire | Disclaimer

   EN    FR    IT 

 









Légende :    VFR   VFR Marginal   IFR   IFR Intensif   IFR Très Intensif
Visi : 
Plafond : 
>= 8 km
>= 3000ft
5 à 8 km
1000 à 3000 ft
1500m à 5 km
500 à 1000 ft
800 à 1500m
200 à 500 ft
< 800m
< 200 ft
Symboles :   Orages  Brouillard  Fortes neiges  Fortes précipitations  Vent > 20 kt






- Altitude de l'aérodrome : 203 ft
- Code IATA : YQY


CYQY - Sydney

DERNIER METAR :
  • 172100Z 33028G40KT 3/4SM R06/4000VP6000FT/D -SHSN BLSN OVC022 M11/M14 A2970 RMK SN3SC5 CVCTV CLD EMBD SLP062

METARs EXPIRÉS :
  • 172000Z 34029G44KT 5/8SM -SHSN BLSN OVC024 M10/M14 A2965 RMK SN3SC5 VIS W 3 CVCTV CLD EMBD SLP047
  • 171900Z 34030G42KT 1/2SM -SHSN BLSN BKN018 OVC028 M10/M13 A2963 RMK SN4SC2SC2 VIS VRB 3/8-5/8 CVCTV CLD EMBD SLP038

TAF TAF CYQY
Valide du 17 à 18h jusqu'au 18 à 06h UTC


171738Z 1718/1806 35030G50KT 1/2SM -SN BLSN VV012
TEMPO 1718/1722 2SM -SN SCT012 BKN025
FM172200 33032G52KT 1SM -SN BLSN OVC020
TEMPO 1722/1806 6SM -SN OVC025
BECMG 1804/1806 32025G40KT RMK NXT FCST BY 180000Z



MET'MAP, la Météo Aéronautique d'un coup d'oeil ! - Copyright ORBIFLY Décembre 2007 - Disclaimer

ORBIFLY MET'MAP TEAM :

Programmation & Développement : Alexandra Zaïnal
Sur une idée originale de : Baudouin d'Aumeries
Assistance à la programmation : Marc-Olivier Méhu
Soutien technique & logistique : Manuel Goepfert

Contact : metmap@orbifly.com




SOURCES & CREDITS :

   NOAA